Norwell, Massachusetts
Current Conditions -  °F | °C
As of 5:15 PM on Sunday 21 Dec 2014 (Local Time) from KGHG Reporting Station
Light Rain Light Rain  
Wind Chill: 31°   Ceiling: 600
Heat Index: 37°   Visibility: 4mi
Dew Point: 37°   Wind: 8mph
Humidity: 100%   Direction: 10°N
Pressure: 30.32"   Gusts: 17mph
Location:  42.16°N, 70.79°W
Report Text: KGHG 212215Z AUTO 01007G15KT 020V360 4SM -RA OVC006 03/03 A3032 RMK AO2 P0001
Loading
Personal Weather Stations






























Interactive Weather Map New forecast layout! Learn more

10-Day Weather Forecast

Advertisements
Track Severe Weather on mobile